Time;durP1;ratioP1;P1;durP2;ratioP2;P2;SDS_P1;SDS_P2;PMS_P1;PMS_P2;Temp;Humidity;BMP_temperature;BMP_pressure;BME280_temperature;BME280_humidity;BME280_pressure;Samples;Min_cycle;Max_cycle;Signal;HPM_P1;HPM_P2
2023/05/24 00:01:27;;;;;;;14.60;10.60;;;;;;;14.67;86.43;100477.04;110737;1209;96352;-63
2023/05/24 00:03:57;;;;;;;14.80;10.70;;;;;;;14.64;87.00;100478.09;110684;1209;140342;-64
2023/05/24 00:06:25;;;;;;;14.70;10.90;;;;;;;14.59;86.98;100476.58;110798;1208;100189;-63
2023/05/24 00:08:51;;;;;;;16.50;11.00;;;;;;;14.56;87.11;100472.27;110642;1212;138946;-63
2023/05/24 00:11:16;;;;;;;15.20;11.20;;;;;;;14.54;87.08;100471.91;110796;1209;95135;-64
2023/05/24 00:13:41;;;;;;;14.50;10.40;;;;;;;14.51;87.20;100470.12;110803;1208;96340;-63
2023/05/24 00:16:06;;;;;;;20.80;10.60;;;;;;;14.48;87.31;100476.72;110688;1209;138822;-63
2023/05/24 00:18:32;;;;;;;19.10;11.20;;;;;;;14.46;87.77;100477.27;110793;1210;96353;-63
2023/05/24 00:20:58;;;;;;;16.20;9.30;;;;;;;14.41;87.78;100478.23;110645;1212;139532;-63
2023/05/24 00:23:26;;;;;;;18.10;11.30;;;;;;;14.39;88.00;100481.98;110808;1210;96254;-63
2023/05/24 00:25:52;;;;;;;17.80;10.90;;;;;;;14.36;87.96;100482.30;110730;1212;96352;-64
2023/05/24 00:28:17;;;;;;;14.00;8.40;;;;;;;14.33;87.75;100482.89;110710;1208;138509;-63
2023/05/24 00:30:42;;;;;;;18.00;8.30;;;;;;;14.24;87.90;100489.17;110830;1211;96335;-63
2023/05/24 00:33:08;;;;;;;14.70;8.40;;;;;;;14.12;87.81;100492.77;110613;1208;138440;-64
2023/05/24 00:35:33;;;;;;;19.10;8.10;;;;;;;14.02;87.84;100492.68;110851;1212;96274;-63
2023/05/24 00:37:58;;;;;;;16.70;8.90;;;;;;;13.89;88.21;100496.70;110735;1208;96345;-63
2023/05/24 00:40:24;;;;;;;17.50;8.90;;;;;;;13.74;88.10;100504.04;110622;1212;138537;-63
2023/05/24 00:42:49;;;;;;;14.20;8.30;;;;;;;13.64;87.78;100506.20;110848;1212;96265;-62
2023/05/24 00:45:14;;;;;;;14.10;8.50;;;;;;;13.56;87.64;100514.75;110681;1216;140610;-63
2023/05/24 00:47:40;;;;;;;15.60;9.40;;;;;;;13.49;87.53;100515.17;110827;1212;96354;-63
2023/05/24 00:50:08;;;;;;;15.10;10.50;;;;;;;13.43;87.37;100520.93;110718;1208;109975;-63
2023/05/24 00:52:35;;;;;;;15.20;8.80;;;;;;;13.34;87.38;100528.60;110740;1212;138800;-63
2023/05/24 00:55:00;;;;;;;22.80;8.90;;;;;;;13.25;87.42;100528.41;110774;1208;96764;-63
2023/05/24 00:57:26;;;;;;;16.10;9.40;;;;;;;13.20;87.36;100536.40;110762;1208;139149;-62
2023/05/24 00:59:51;;;;;;;23.60;9.20;;;;;;;13.13;87.34;100537.81;110859;1208;96313;-63
2023/05/24 01:02:17;;;;;;;16.20;9.80;;;;;;;13.05;87.16;100542.75;110831;1212;95517;-63
2023/05/24 01:04:43;;;;;;;18.70;11.50;;;;;;;13.00;87.15;100541.98;110689;1208;140323;-63
2023/05/24 01:07:25;;;;;;;19.90;10.90;;;;;;;12.95;87.04;100543.55;110727;1212;96231;-63
2023/05/24 01:10:18;;;;;;;16.70;11.00;;;;;;;12.91;86.94;100548.97;110683;1208;139553;-63
2023/05/24 01:13:11;;;;;;;17.20;10.20;;;;;;;12.88;86.90;100554.89;110770;1223;99958;-62
2023/05/24 01:16:20;;;;;;;19.50;10.40;;;;;;;12.84;86.75;100554.16;110718;1212;139281;-62
2023/05/24 01:19:04;;;;;;;25.10;10.90;;;;;;;12.78;86.77;100554.68;110890;1212;96688;-62
2023/05/24 01:21:33;;;;;;;15.00;10.20;;;;;;;12.73;86.75;100560.52;110624;1213;138672;-63
2023/05/24 01:24:01;;;;;;;17.90;10.40;;;;;;;12.72;86.61;100560.61;110938;1208;110622;-63
2023/05/24 01:26:41;;;;;;;20.40;11.20;;;;;;;12.70;86.71;100568.02;110653;1212;140836;-63
2023/05/24 01:29:07;;;;;;;19.20;9.90;;;;;;;12.67;86.63;100570.70;110744;1212;107619;-63
2023/05/24 01:31:33;;;;;;;16.70;9.70;;;;;;;12.66;86.65;100564.28;110767;1208;96251;-63
2023/05/24 01:33:59;;;;;;;17.70;10.50;;;;;;;12.64;86.62;100568.33;110804;1212;139507;-62
2023/05/24 01:36:25;;;;;;;17.60;10.70;;;;;;;12.62;86.70;100569.33;110921;1213;96415;-63
2023/05/24 01:38:50;;;;;;;18.90;9.70;;;;;;;12.61;86.65;100566.88;110681;1209;139435;-63
2023/05/24 01:41:44;;;;;;;18.50;10.50;;;;;;;12.61;86.64;100572.80;110804;1213;96308;-63
2023/05/24 01:44:21;;;;;;;19.30;10.60;;;;;;;12.60;86.67;100576.45;110848;1208;109873;-63
2023/05/24 01:46:59;;;;;;;18.80;10.60;;;;;;;12.59;86.75;100578.81;110799;1208;100075;-63
2023/05/24 01:49:28;;;;;;;17.90;10.40;;;;;;;12.59;86.69;100580.64;110690;1208;107788;-63
2023/05/24 01:52:05;;;;;;;18.30;10.30;;;;;;;12.57;86.69;100581.97;110646;1208;138866;-63
2023/05/24 01:54:33;;;;;;;13.70;9.10;;;;;;;12.58;86.62;100586.41;110770;1223;96304;-63
2023/05/24 01:57:05;;;;;;;18.10;10.30;;;;;;;12.57;86.85;100585.92;110761;1208;138689;-63
2023/05/24 01:59:32;;;;;;;18.50;9.10;;;;;;;12.55;86.87;100586.04;110816;1213;99843;-63
2023/05/24 02:01:58;;;;;;;11.00;8.00;;;;;;;12.53;86.78;100588.11;110877;1208;96350;-64
2023/05/24 02:04:24;;;;;;;13.00;9.10;;;;;;;12.52;86.86;100592.62;110759;1212;138552;-63
2023/05/24 02:06:50;;;;;;;15.60;8.20;;;;;;;12.51;86.89;100596.27;110863;1209;96374;-63
2023/05/24 02:09:15;;;;;;;16.70;8.90;;;;;;;12.52;86.86;100594.45;110772;1212;139873;-63
2023/05/24 02:11:40;;;;;;;14.70;8.80;;;;;;;12.52;86.97;100596.77;110743;1208;96350;-62
2023/05/24 02:14:06;;;;;;;16.00;9.10;;;;;;;12.50;87.07;100594.36;110925;1208;95123;-63
2023/05/24 02:16:32;;;;;;;18.00;8.70;;;;;;;12.51;87.05;100597.54;110691;1208;138313;-63
2023/05/24 02:18:57;;;;;;;16.30;9.80;;;;;;;12.51;86.89;100595.92;110758;1212;96430;-63
2023/05/24 02:21:24;;;;;;;17.60;10.20;;;;;;;12.52;86.87;100595.48;110615;1208;138945;-63
2023/05/24 02:23:49;;;;;;;19.70;10.40;;;;;;;12.53;86.75;100602.08;110749;1212;96335;-63
2023/05/24 02:26:16;;;;;;;18.40;9.10;;;;;;;12.52;86.78;100599.28;110764;1208;96234;-63
2023/05/24 02:28:42;;;;;;;16.10;9.40;;;;;;;12.54;86.84;100599.52;110759;1212;139079;-63
2023/05/24 02:31:07;;;;;;;11.90;7.80;;;;;;;12.55;86.87;100600.02;110712;1210;95940;-63
2023/05/24 02:33:34;;;;;;;13.20;7.30;;;;;;;12.54;87.29;100594.53;110689;1209;139936;-63
2023/05/24 02:36:00;;;;;;;16.50;7.90;;;;;;;12.50;87.27;100597.75;110849;1208;96397;-63
2023/05/24 02:38:25;;;;;;;8.20;5.80;;;;;;;12.49;87.15;100594.39;110798;1213;138936;-63
2023/05/24 02:40:50;;;;;;;11.20;7.00;;;;;;;12.48;87.29;100597.13;110768;1210;96303;-63
2023/05/24 02:43:16;;;;;;;11.20;6.10;;;;;;;12.49;87.15;100596.94;110886;1211;93947;-63
2023/05/24 02:45:41;;;;;;;10.10;6.60;;;;;;;12.49;87.10;100600.48;110606;1212;138617;-63
2023/05/24 02:48:06;;;;;;;9.90;7.10;;;;;;;12.50;87.12;100613.21;110760;1208;96304;-63
2023/05/24 02:50:31;;;;;;;12.00;6.80;;;;;;;12.46;87.13;100610.51;110617;1212;138391;-63
2023/05/24 02:52:57;;;;;;;9.40;6.10;;;;;;;12.45;87.26;100611.11;110796;1212;96656;-63
2023/05/24 02:55:22;;;;;;;10.30;5.60;;;;;;;12.44;87.22;100609.73;110874;1214;96300;-63
2023/05/24 02:57:47;;;;;;;6.80;5.20;;;;;;;12.42;87.32;100612.54;110648;1212;138404;-63
2023/05/24 03:00:14;;;;;;;9.50;4.00;;;;;;;12.40;87.31;100616.20;110862;1208;96303;-63
2023/05/24 03:02:42;;;;;;;8.70;4.80;;;;;;;12.39;87.49;100616.27;110787;1212;139391;-63
2023/05/24 03:05:07;;;;;;;5.10;4.30;;;;;;;12.37;87.40;100619.94;110803;1208;107980;-63
2023/05/24 03:07:32;;;;;;;5.70;4.00;;;;;;;12.37;87.51;100623.34;110796;1212;96666;-63
2023/05/24 03:09:58;;;;;;;4.90;3.40;;;;;;;12.37;87.65;100622.98;110719;1212;139096;-63
2023/05/24 03:12:23;;;;;;;5.50;3.70;;;;;;;12.39;87.59;100624.71;110838;1210;96360;-64
2023/05/24 03:14:49;;;;;;;4.30;3.70;;;;;;;12.38;87.66;100628.30;110731;1213;138823;-63
2023/05/24 03:17:14;;;;;;;9.00;4.60;;;;;;;12.37;87.59;100630.89;110774;1212;96361;-64
2023/05/24 03:19:40;;;;;;;5.20;4.60;;;;;;;12.36;87.55;100639.70;110779;1208;95229;-63
2023/05/24 03:22:06;;;;;;;7.80;5.20;;;;;;;12.34;87.54;100655.77;110770;1211;139027;-63
2023/05/24 03:24:32;;;;;;;9.60;4.80;;;;;;;12.21;87.63;100660.73;110836;1214;96398;-64
2023/05/24 03:26:58;;;;;;;13.90;5.20;;;;;;;12.07;87.63;100659.81;110770;1212;138271;-63
2023/05/24 03:29:23;;;;;;;11.00;4.70;;;;;;;11.97;87.79;100661.52;110954;1208;96227;-64
2023/05/24 03:31:48;;;;;;;11.50;4.90;;;;;;;11.87;87.98;100665.05;110806;1212;96356;-63
2023/05/24 03:34:13;;;;;;;9.60;4.90;;;;;;;11.75;88.10;100665.26;110704;1208;139541;-63
2023/05/24 03:36:39;;;;;;;9.90;5.50;;;;;;;11.65;88.23;100660.54;110855;1212;96373;-63
2023/05/24 03:39:04;;;;;;;17.90;6.30;;;;;;;11.58;88.35;100654.45;110659;1209;138998;-63
2023/05/24 03:41:30;;;;;;;15.50;6.80;;;;;;;11.50;88.44;100656.45;110872;1211;96406;-63
2023/05/24 03:43:55;;;;;;;14.80;6.60;;;;;;;11.38;88.57;100667.19;110777;1212;97169;-63
2023/05/24 03:46:21;;;;;;;15.60;6.40;;;;;;;11.23;88.80;100670.56;110742;1208;138887;-63
2023/05/24 03:48:47;;;;;;;19.00;7.20;;;;;;;11.08;89.19;100668.94;110830;1213;96390;-64
2023/05/24 03:51:12;;;;;;;18.50;6.30;;;;;;;10.99;89.46;100665.23;110729;1208;140749;-63
2023/05/24 03:53:38;;;;;;;16.90;8.30;;;;;;;10.88;89.80;100666.05;110831;1208;96932;-63
2023/05/24 03:56:03;;;;;;;24.00;7.90;;;;;;;10.79;89.98;100671.48;110936;1208;95099;-64
2023/05/24 03:58:28;;;;;;;19.90;7.30;;;;;;;10.71;90.05;100674.46;110727;1208;138851;-63
2023/05/24 04:00:54;;;;;;;18.30;7.50;;;;;;;10.69;90.22;100675.29;110952;1212;96004;-63
2023/05/24 04:03:20;;;;;;;23.70;7.80;;;;;;;10.62;90.49;100673.83;110894;1212;139365;-63
2023/05/24 04:05:46;;;;;;;18.90;8.00;;;;;;;10.56;90.75;100683.18;110889;1209;96272;-63
2023/05/24 04:08:13;;;;;;;20.80;7.50;;;;;;;10.51;90.86;100695.05;110907;1213;96333;-63
2023/05/24 04:10:38;;;;;;;17.40;7.40;;;;;;;10.47;90.80;100689.66;110756;1208;138760;-63
2023/05/24 04:13:03;;;;;;;15.40;6.90;;;;;;;10.47;91.23;100694.30;110846;1209;96317;-63
2023/05/24 04:15:29;;;;;;;15.40;8.10;;;;;;;10.41;91.18;100703.70;110789;1213;140412;-63
2023/05/24 04:17:55;;;;;;;26.50;9.00;;;;;;;10.35;91.22;100706.25;110815;1213;96343;-63
2023/05/24 04:20:25;;;;;;;18.10;9.00;;;;;;;10.34;91.21;100707.73;110942;1208;94035;-63
2023/05/24 04:22:51;;;;;;;21.90;8.70;;;;;;;10.35;91.27;100711.25;110846;1210;98092;-64
2023/05/24 04:25:16;;;;;;;18.30;7.90;;;;;;;10.35;91.28;100713.60;110790;1210;96369;-63
2023/05/24 04:27:42;;;;;;;14.00;7.80;;;;;;;10.30;91.41;100718.60;110691;1212;139796;-63
2023/05/24 04:30:08;;;;;;;15.80;8.00;;;;;;;10.26;91.45;100720.59;110802;1208;96049;-63
2023/05/24 04:32:33;;;;;;;17.60;7.30;;;;;;;10.21;91.38;100719.88;110740;1213;139812;-63
2023/05/24 04:35:01;;;;;;;16.90;7.60;;;;;;;10.19;91.51;100718.36;110807;1208;96217;-63
2023/05/24 04:37:28;;;;;;;16.70;6.70;;;;;;;10.17;91.50;100716.10;110788;1209;96699;-63
2023/05/24 04:39:54;;;;;;;11.50;6.60;;;;;;;10.17;91.50;100719.48;110737;1208;140753;-63
2023/05/24 04:42:20;;;;;;;12.40;6.70;;;;;;;10.17;91.76;100728.23;111016;1214;96370;-63
2023/05/24 04:44:45;;;;;;;10.40;5.60;;;;;;;10.15;92.05;100734.40;110682;1208;140254;-63
2023/05/24 04:47:11;;;;;;;14.50;6.10;;;;;;;10.10;92.03;100730.31;110751;1214;96245;-63
2023/05/24 04:49:37;;;;;;;8.50;4.20;;;;;;;10.07;92.12;100728.98;110836;1209;97905;-63
2023/05/24 04:52:03;;;;;;;17.30;6.40;;;;;;;10.02;92.40;100730.42;110787;1210;138856;-62
2023/05/24 04:54:29;;;;;;;14.20;5.40;;;;;;;10.01;92.55;100736.00;110780;1209;96408;-63
2023/05/24 04:56:54;;;;;;;11.50;5.80;;;;;;;10.04;92.48;100746.05;110710;1209;139387;-63
2023/05/24 04:59:19;;;;;;;16.30;6.60;;;;;;;10.04;92.40;100739.98;110864;1208;96247;-63
2023/05/24 05:01:44;;;;;;;9.70;4.40;;;;;;;10.06;92.50;100748.30;110735;1214;96318;-63
2023/05/24 05:04:10;;;;;;;9.20;5.10;;;;;;;10.05;92.47;100748.33;110699;1211;138321;-63
2023/05/24 05:06:38;;;;;;;16.50;5.50;;;;;;;10.05;92.71;100750.83;110886;1213;110517;-63
2023/05/24 05:09:12;;;;;;;9.40;4.80;;;;;;;10.01;93.11;100749.23;110743;1213;139062;-63
2023/05/24 05:11:37;;;;;;;10.50;5.00;;;;;;;9.98;93.02;100750.23;110787;1208;107422;-63
2023/05/24 05:14:03;;;;;;;8.70;5.30;;;;;;;10.03;93.13;100751.27;110816;1214;96309;-62
2023/05/24 05:16:29;;;;;;;10.70;5.00;;;;;;;10.08;93.31;100759.13;110859;1208;139750;-63
2023/05/24 05:18:54;;;;;;;12.50;4.40;;;;;;;10.07;93.21;100766.45;110789;1208;99838;-62
2023/05/24 05:21:20;;;;;;;10.40;4.50;;;;;;;10.08;93.27;100775.70;110636;1208;139755;-65
2023/05/24 05:23:45;;;;;;;8.20;3.70;;;;;;;10.09;93.43;100782.81;110751;1209;97418;-63
2023/05/24 05:26:11;;;;;;;7.70;3.60;;;;;;;10.09;93.49;100785.33;110868;1213;96251;-62
2023/05/24 05:28:36;;;;;;;7.60;3.90;;;;;;;10.08;93.34;100784.82;110764;1208;138968;-63
2023/05/24 05:31:02;;;;;;;4.40;2.50;;;;;;;10.11;93.44;100789.16;110826;1214;96341;-63
2023/05/24 05:33:27;;;;;;;5.20;2.40;;;;;;;10.14;93.52;100795.16;110694;1208;138294;-62
2023/05/24 05:35:53;;;;;;;5.30;2.10;;;;;;;10.16;93.44;100794.35;110792;1213;96308;-63
2023/05/24 05:38:18;;;;;;;8.30;2.70;;;;;;;10.21;93.34;100792.94;110787;1212;96841;-63
2023/05/24 05:40:43;;;;;;;5.50;2.50;;;;;;;10.25;93.34;100789.35;110722;1214;139891;-62
2023/05/24 05:43:08;;;;;;;8.70;2.30;;;;;;;10.29;93.21;100786.16;110830;1213;110280;-63
2023/05/24 05:45:34;;;;;;;6.20;2.40;;;;;;;10.33;93.20;100785.46;110749;1213;139371;-62
2023/05/24 05:47:59;;;;;;;1.90;1.70;;;;;;;10.37;93.04;100787.45;111028;1208;96248;-63
2023/05/24 05:50:25;;;;;;;9.00;3.10;;;;;;;10.41;92.93;100796.19;110807;1213;96343;-63
2023/05/24 05:52:50;;;;;;;5.00;1.50;;;;;;;10.46;92.76;100801.89;110743;1208;139030;-63
2023/05/24 05:55:15;;;;;;;4.40;1.90;;;;;;;10.49;92.65;100812.67;110844;1214;96359;-63
2023/05/24 05:57:40;;;;;;;3.50;1.80;;;;;;;10.47;92.64;100808.82;110650;1208;138446;-63
2023/05/24 06:00:07;;;;;;;7.80;1.50;;;;;;;10.47;92.59;100804.36;110916;1213;96250;-63
2023/05/24 06:02:32;;;;;;;3.10;1.00;;;;;;;10.53;92.49;100808.20;110733;1208;139377;-62
2023/05/24 06:04:57;;;;;;;1.90;1.30;;;;;;;10.56;92.34;100810.23;110765;1208;100419;-62
2023/05/24 06:07:23;;;;;;;1.40;1.10;;;;;;;10.57;92.25;100811.45;110897;1213;96263;-62
2023/05/24 06:09:48;;;;;;;2.10;1.40;;;;;;;10.57;92.15;100812.34;110689;1214;139454;-62
2023/05/24 06:12:13;;;;;;;5.00;1.10;;;;;;;10.60;92.18;100816.51;110782;1214;96911;-63
2023/05/24 06:14:38;;;;;;;2.70;1.50;;;;;;;10.63;92.05;100821.56;110622;1208;139246;-63
2023/05/24 06:17:05;;;;;;;1.80;1.10;;;;;;;10.62;91.82;100822.48;110748;1209;96337;-63
2023/05/24 06:19:31;;;;;;;1.60;1.20;;;;;;;10.60;91.61;100831.68;110667;1212;99979;-63
2023/05/24 06:21:57;;;;;;;3.40;1.10;;;;;;;10.61;91.55;100834.31;110553;1212;140049;-63
2023/05/24 06:24:22;;;;;;;2.10;1.10;;;;;;;10.64;91.50;100839.95;110894;1208;97240;-63
2023/05/24 06:26:49;;;;;;;2.90;1.30;;;;;;;10.66;91.44;100845.76;110568;1214;139608;-63
2023/05/24 06:29:14;;;;;;;3.50;1.00;;;;;;;10.64;91.18;100845.64;110816;1208;96308;-63
2023/05/24 06:31:42;;;;;;;7.60;0.90;;;;;;;10.63;91.24;100848.17;110721;1208;96697;-63
2023/05/24 06:34:07;;;;;;;4.90;1.20;;;;;;;10.65;91.16;100848.83;110693;1209;138733;-64
2023/05/24 06:36:34;;;;;;;1.30;0.90;;;;;;;10.69;91.01;100855.27;110770;1208;110748;-63
2023/05/24 06:39:00;;;;;;;2.60;0.90;;;;;;;10.70;90.95;100857.54;110643;1214;138964;-63
2023/05/24 06:41:25;;;;;;;1.60;0.90;;;;;;;10.71;90.82;100855.53;110751;1214;95135;-63
2023/05/24 06:43:51;;;;;;;1.30;1.10;;;;;;;10.76;90.81;100858.94;110633;1209;97279;-62
2023/05/24 06:46:16;;;;;;;2.90;1.50;;;;;;;10.83;90.74;100863.48;110684;1213;139673;-63
2023/05/24 06:48:42;;;;;;;3.70;1.80;;;;;;;10.86;90.65;100861.73;110581;1209;96396;-63
2023/05/24 06:51:07;;;;;;;2.10;1.30;;;;;;;10.91;90.63;100866.71;110401;1211;139077;-63
2023/05/24 06:53:32;;;;;;;1.80;1.40;;;;;;;10.92;90.48;100868.80;110616;1214;97882;-63
2023/05/24 06:55:57;;;;;;;1.10;0.90;;;;;;;10.92;90.36;100877.39;110721;1210;96264;-63
2023/05/24 06:58:23;;;;;;;1.30;1.20;;;;;;;10.91;90.29;100874.77;110577;1214;139717;-64
2023/05/24 07:00:49;;;;;;;1.80;1.50;;;;;;;10.94;90.25;100878.58;110738;1209;96291;-64
2023/05/24 07:03:14;;;;;;;1.60;1.50;;;;;;;10.98;90.13;100877.14;110633;1212;139056;-64
2023/05/24 07:05:40;;;;;;;1.70;1.30;;;;;;;11.03;90.11;100879.08;110908;1209;96240;-64
2023/05/24 07:08:05;;;;;;;4.20;2.00;;;;;;;11.06;89.81;100883.23;110378;1214;96328;-64
2023/05/24 07:10:31;;;;;;;4.70;1.40;;;;;;;11.06;89.76;100881.30;110394;1208;139996;-64
2023/05/24 07:12:56;;;;;;;2.50;1.70;;;;;;;11.11;89.75;100885.93;110382;1213;96273;-64
2023/05/24 07:15:21;;;;;;;3.50;1.70;;;;;;;11.12;89.67;100878.70;110617;1209;138864;-64
2023/05/24 07:17:47;;;;;;;1.80;1.70;;;;;;;11.18;89.55;100887.41;110665;1213;96347;-64
2023/05/24 07:20:12;;;;;;;4.30;1.70;;;;;;;11.17;89.28;100886.89;110775;1208;96072;-64
2023/05/24 07:22:38;;;;;;;2.20;2.00;;;;;;;11.18;89.16;100888.30;110594;1214;139182;-64
2023/05/24 07:25:04;;;;;;;2.40;2.20;;;;;;;11.19;89.07;100890.04;110773;1214;96687;-64
2023/05/24 07:27:30;;;;;;;3.30;2.50;;;;;;;11.21;89.05;100889.41;110878;1210;137506;-64
2023/05/24 07:29:56;;;;;;;3.00;2.40;;;;;;;11.24;89.02;100895.39;110621;1208;110539;-64
2023/05/24 07:32:21;;;;;;;2.50;2.30;;;;;;;11.28;88.94;100898.08;110709;1212;96307;-64
2023/05/24 07:34:47;;;;;;;7.20;3.00;;;;;;;11.32;88.88;100900.58;110679;1208;138589;-64
2023/05/24 07:37:12;;;;;;;5.30;2.80;;;;;;;11.37;88.69;100905.71;110566;1210;96285;-65
2023/05/24 07:39:37;;;;;;;8.00;3.20;;;;;;;11.33;88.47;100909.67;110593;1222;139818;-64
2023/05/24 07:42:04;;;;;;;3.90;3.20;;;;;;;11.34;88.54;100915.16;110630;1208;107943;-64
2023/05/24 07:44:29;;;;;;;6.30;3.00;;;;;;;11.37;88.47;100911.64;110646;1210;138719;-65
2023/05/24 07:46:55;;;;;;;4.80;3.40;;;;;;;11.39;88.45;100915.32;110924;1213;96485;-65
2023/05/24 07:49:21;;;;;;;3.80;3.20;;;;;;;11.41;88.42;100912.35;110725;1213;98797;-64
2023/05/24 07:51:47;;;;;;;7.60;3.70;;;;;;;11.49;88.39;100918.45;110442;1214;140503;-64
2023/05/24 07:54:13;;;;;;;4.00;3.60;;;;;;;11.50;88.10;100923.27;110724;1212;97593;-65
2023/05/24 07:56:40;;;;;;;4.90;3.00;;;;;;;11.45;87.95;100925.27;110560;1213;138490;-65
2023/05/24 07:59:06;;;;;;;8.00;4.50;;;;;;;11.37;87.76;100923.42;110732;1212;97612;-65
2023/05/24 08:01:33;;;;;;;6.30;3.60;;;;;;;11.38;87.85;100931.45;110723;1210;97628;-64
2023/05/24 08:04:02;;;;;;;6.00;4.00;;;;;;;11.43;87.91;100935.53;110641;1209;138956;-65
2023/05/24 08:06:29;;;;;;;4.70;3.70;;;;;;;11.45;87.68;100945.65;110765;1213;98011;-65
2023/05/24 08:08:55;;;;;;;6.10;4.30;;;;;;;11.43;87.57;100953.80;110597;1209;140876;-65
2023/05/24 08:11:20;;;;;;;6.00;4.30;;;;;;;11.40;87.49;100952.84;110676;1211;99398;-64
2023/05/24 08:13:46;;;;;;;7.60;4.30;;;;;;;11.43;87.44;100953.80;110739;1212;97600;-63
2023/05/24 08:16:11;;;;;;;5.30;3.80;;;;;;;11.40;87.21;100957.13;110634;1213;138817;-66
2023/05/24 08:18:36;;;;;;;8.30;4.30;;;;;;;11.39;87.30;100961.30;110788;1213;97588;-63
2023/05/24 08:21:02;;;;;;;7.60;4.40;;;;;;;11.39;87.18;100961.98;110546;1212;140311;-63
2023/05/24 08:23:28;;;;;;;10.40;4.30;;;;;;;11.37;87.04;100962.63;110654;1214;98065;-64
2023/05/24 08:25:58;;;;;;;10.60;4.50;;;;;;;11.41;87.20;100958.35;110715;1209;99097;-64
2023/05/24 08:28:23;;;;;;;10.10;5.10;;;;;;;11.50;87.22;100956.00;110521;1214;140164;-63
2023/05/24 08:30:48;;;;;;;5.80;4.50;;;;;;;11.56;87.15;100956.27;110574;1212;97643;-64
2023/05/24 08:33:14;;;;;;;8.70;4.40;;;;;;;11.59;86.97;100960.64;110592;1212;138449;-64
2023/05/24 08:35:39;;;;;;;8.00;4.50;;;;;;;11.52;86.70;100974.36;110673;1212;99182;-64
2023/05/24 08:38:05;;;;;;;9.10;4.60;;;;;;;11.47;86.82;100978.51;110821;1209;97594;-64
2023/05/24 08:40:30;;;;;;;10.80;5.00;;;;;;;11.53;86.74;100983.29;110644;1223;138322;-64
2023/05/24 08:42:59;;;;;;;15.00;5.50;;;;;;;11.52;86.67;100988.87;110554;1209;97585;-65
2023/05/24 08:45:27;;;;;;;12.10;5.20;;;;;;;11.50;86.69;100991.79;110464;1214;138679;-63
2023/05/24 08:47:54;;;;;;;11.70;5.70;;;;;;;11.46;86.63;100991.42;110682;1210;97697;-64
2023/05/24 08:50:20;;;;;;;10.00;5.30;;;;;;;11.45;86.64;101000.40;110670;1215;97731;-64
2023/05/24 08:52:46;;;;;;;8.80;5.30;;;;;;;11.47;86.51;101005.17;110583;1214;138609;-65
2023/05/24 08:55:12;;;;;;;10.60;5.70;;;;;;;11.42;86.47;101003.05;110768;1212;97747;-64
2023/05/24 08:57:39;;;;;;;12.20;6.00;;;;;;;11.38;86.51;101005.67;110502;1212;138844;-64
2023/05/24 09:00:10;;;;;;;10.00;5.70;;;;;;;11.39;86.53;101011.73;110736;1214;97826;-64
2023/05/24 09:02:37;;;;;;;12.40;7.10;;;;;;;11.37;86.54;101009.50;110641;1210;138959;-65
2023/05/24 09:05:04;;;;;;;12.00;6.80;;;;;;;11.36;86.60;101009.73;110650;1216;98950;-63
2023/05/24 09:07:30;;;;;;;9.70;5.80;;;;;;;11.36;86.67;101012.02;110674;1208;97622;-64
2023/05/24 09:10:00;;;;;;;12.10;6.60;;;;;;;11.39;86.60;101013.54;110565;1215;139161;-64
2023/05/24 09:12:29;;;;;;;19.00;7.20;;;;;;;11.42;86.51;101015.77;110642;1215;108162;-64
2023/05/24 09:14:56;;;;;;;23.20;7.00;;;;;;;11.43;86.56;101023.21;110641;1215;139414;-64
2023/05/24 09:17:21;;;;;;;12.70;6.90;;;;;;;11.47;86.54;101023.96;110638;1215;97777;-64
2023/05/24 09:19:47;;;;;;;14.20;7.20;;;;;;;11.48;86.60;101024.09;110541;1214;97673;-64
2023/05/24 09:22:19;;;;;;;20.10;7.90;;;;;;;11.55;86.69;101028.09;110683;1215;139112;-64
2023/05/24 09:24:50;;;;;;;21.40;7.40;;;;;;;11.60;86.61;101027.15;110764;1215;97676;-64
2023/05/24 09:27:16;;;;;;;19.90;7.50;;;;;;;11.63;86.48;101027.23;110606;1212;139613;-64
2023/05/24 09:29:44;;;;;;;15.70;8.00;;;;;;;11.67;86.48;101032.05;110682;1209;97704;-63
2023/05/24 09:32:13;;;;;;;15.70;8.10;;;;;;;11.70;86.38;101029.97;110606;1215;97704;-64
2023/05/24 09:34:40;;;;;;;17.30;7.20;;;;;;;11.74;86.47;101032.86;110497;1209;138674;-64
2023/05/24 09:37:12;;;;;;;15.70;7.30;;;;;;;11.76;86.26;101038.14;110376;1212;97682;-63
2023/05/24 09:39:40;;;;;;;19.80;7.40;;;;;;;11.78;86.38;101039.88;110503;1209;138531;-64
2023/05/24 09:42:06;;;;;;;20.60;8.00;;;;;;;11.78;86.11;101042.90;110575;1209;112007;-64
2023/05/24 09:44:31;;;;;;;15.10;7.50;;;;;;;11.75;86.22;101046.23;110573;1209;138967;-65
2023/05/24 09:47:05;;;;;;;18.50;8.30;;;;;;;11.78;86.22;101039.35;110581;1215;97712;-64
2023/05/24 09:49:34;;;;;;;20.00;7.10;;;;;;;11.82;86.10;101040.79;110661;1215;97673;-63
2023/05/24 09:52:00;;;;;;;19.40;7.80;;;;;;;11.85;86.10;101042.09;110568;1215;138641;-64
2023/05/24 09:54:26;;;;;;;14.90;7.40;;;;;;;11.92;86.16;101045.89;110635;1212;97641;-64
2023/05/24 09:56:51;;;;;;;13.30;7.50;;;;;;;12.02;86.14;101042.07;110605;1210;138982;-64
2023/05/24 09:59:17;;;;;;;18.30;8.80;;;;;;;12.07;85.89;101046.17;110727;1209;97910;-64
2023/05/24 10:01:44;;;;;;;16.10;7.10;;;;;;;12.04;85.68;101050.96;110700;1212;97699;-64
2023/05/24 10:04:09;;;;;;;16.40;7.60;;;;;;;11.97;85.64;101056.42;110570;1215;139247;-64
2023/05/24 10:06:38;;;;;;;17.60;7.60;;;;;;;11.92;85.57;101062.57;110785;1210;99073;-63
2023/05/24 10:09:08;;;;;;;16.60;7.30;;;;;;;11.89;85.53;101065.37;110614;1210;139252;-64
2023/05/24 10:11:44;;;;;;;14.20;7.90;;;;;;;11.88;85.49;101065.93;110737;1215;111078;-64
2023/05/24 10:14:09;;;;;;;19.20;7.70;;;;;;;11.84;85.38;101075.25;110752;1210;100029;-63
2023/05/24 10:16:37;;;;;;;11.90;6.60;;;;;;;11.77;85.34;101065.14;110575;1209;139436;-64
2023/05/24 10:19:03;;;;;;;11.20;6.70;;;;;;;11.79;85.52;101067.05;110650;1212;97680;-65
2023/05/24 10:21:31;;;;;;;18.20;7.60;;;;;;;11.83;85.47;101065.64;110560;1212;139932;-64
2023/05/24 10:24:01;;;;;;;17.60;6.40;;;;;;;11.87;85.34;101065.09;110720;1210;99466;-64
2023/05/24 10:26:31;;;;;;;17.50;7.60;;;;;;;11.92;85.41;101065.08;110729;1214;106166;-64
2023/05/24 10:29:03;;;;;;;15.20;6.70;;;;;;;11.95;85.40;101062.27;110673;1215;97713;-65
2023/05/24 10:31:33;;;;;;;22.50;7.70;;;;;;;12.00;85.44;101067.05;110641;1209;96712;-64
2023/05/24 10:34:01;;;;;;;26.00;7.70;;;;;;;12.06;85.33;101065.17;110519;1212;139485;-65
2023/05/24 10:36:26;;;;;;;15.30;6.60;;;;;;;12.07;85.18;101074.30;110749;1212;100110;-65
2023/05/24 10:38:53;;;;;;;12.90;6.60;;;;;;;12.08;85.14;101077.46;110300;1210;146071;-64
2023/05/24 10:41:18;;;;;;;16.30;7.10;;;;;;;12.04;85.12;101076.92;110648;1214;97656;-64
2023/05/24 10:43:47;;;;;;;10.40;5.80;;;;;;;12.01;84.93;101078.29;110600;1210;97581;-63
2023/05/24 10:46:17;;;;;;;16.00;7.70;;;;;;;11.97;84.84;101079.70;110514;1215;138518;-64
2023/05/24 10:48:43;;;;;;;17.00;8.00;;;;;;;11.90;84.85;101083.58;110562;1213;107249;-63
2023/05/24 10:51:33;;;;;;;18.70;7.40;;;;;;;11.91;84.89;101081.59;110390;1208;138884;-63
2023/05/24 10:54:13;;;;;;;18.10;7.10;;;;;;;11.92;84.89;101080.98;112885;1210;95576;-64
2023/05/24 10:56:46;;;;;;;18.40;8.00;;;;;;;11.96;84.96;101085.31;112706;1209;138662;-63
2023/05/24 10:59:26;;;;;;;13.20;6.80;;;;;;;12.08;85.08;101085.86;112927;1209;98468;-64
2023/05/24 11:01:59;;;;;;;12.40;6.90;;;;;;;12.16;84.84;101085.02;112893;1209;107090;-64
2023/05/24 11:04:27;;;;;;;16.20;6.80;;;;;;;12.22;84.92;101087.06;112689;1209;138794;-63
2023/05/24 11:07:04;;;;;;;14.20;7.00;;;;;;;12.24;84.74;101082.70;110733;1213;97748;-63